sensor_id;sensor_type;location;lat;lon;timestamp;P1;durP1;ratioP1;P2;durP2;ratioP2
23565;SDS011;22140;48.988;8.544;2022-08-11T00:00:00;6.22;;;2.42;;
23565;SDS011;22140;48.988;8.544;2022-08-11T00:05:10;8.00;;;2.40;;
23565;SDS011;22140;48.988;8.544;2022-08-11T00:10:12;5.23;;;2.10;;
23565;SDS011;22140;48.988;8.544;2022-08-11T00:15:14;6.53;;;2.13;;
23565;SDS011;22140;48.988;8.544;2022-08-11T00:20:16;5.97;;;2.17;;
23565;SDS011;22140;48.988;8.544;2022-08-11T00:25:18;9.17;;;3.10;;
23565;SDS011;22140;48.988;8.544;2022-08-11T00:30:20;7.00;;;2.63;;
23565;SDS011;22140;48.988;8.544;2022-08-11T00:35:23;7.20;;;2.63;;
23565;SDS011;22140;48.988;8.544;2022-08-11T00:46:08;6.90;;;2.60;;
23565;SDS011;22140;48.988;8.544;2022-08-11T01:17:53;6.77;;;2.27;;
23565;SDS011;22140;48.988;8.544;2022-08-11T01:49:31;7.40;;;2.70;;
23565;SDS011;22140;48.988;8.544;2022-08-11T02:00:20;7.22;;;2.67;;
23565;SDS011;22140;48.988;8.544;2022-08-11T02:05:26;14.43;;;3.00;;
23565;SDS011;22140;48.988;8.544;2022-08-11T02:10:34;7.07;;;2.80;;
23565;SDS011;22140;48.988;8.544;2022-08-11T02:16:03;7.57;;;2.60;;
23565;SDS011;22140;48.988;8.544;2022-08-11T02:21:08;7.30;;;2.78;;
23565;SDS011;22140;48.988;8.544;2022-08-11T02:26:47;6.47;;;2.70;;
23565;SDS011;22140;48.988;8.544;2022-08-11T02:32:04;7.43;;;2.60;;
23565;SDS011;22140;48.988;8.544;2022-08-11T02:53:18;7.22;;;2.65;;
23565;SDS011;22140;48.988;8.544;2022-08-11T03:03:32;6.07;;;2.60;;
23565;SDS011;22140;48.988;8.544;2022-08-11T03:13:45;7.65;;;3.00;;
23565;SDS011;22140;48.988;8.544;2022-08-11T03:24:21;5.97;;;2.60;;
23565;SDS011;22140;48.988;8.544;2022-08-11T03:29:29;7.78;;;2.95;;
23565;SDS011;22140;48.988;8.544;2022-08-11T03:34:31;6.78;;;3.10;;
23565;SDS011;22140;48.988;8.544;2022-08-11T03:39:44;7.67;;;2.80;;
23565;SDS011;22140;48.988;8.544;2022-08-11T03:50:06;8.95;;;3.20;;
23565;SDS011;22140;48.988;8.544;2022-08-11T03:55:27;9.47;;;2.97;;
23565;SDS011;22140;48.988;8.544;2022-08-11T04:11:16;8.10;;;3.40;;
23565;SDS011;22140;48.988;8.544;2022-08-11T04:16:28;6.57;;;2.70;;
23565;SDS011;22140;48.988;8.544;2022-08-11T04:27:26;6.38;;;2.83;;
23565;SDS011;22140;48.988;8.544;2022-08-11T04:32:41;8.67;;;3.57;;
23565;SDS011;22140;48.988;8.544;2022-08-11T04:54:18;8.97;;;3.37;;
23565;SDS011;22140;48.988;8.544;2022-08-11T04:59:52;8.48;;;3.22;;
23565;SDS011;22140;48.988;8.544;2022-08-11T05:16:00;6.07;;;3.10;;
23565;SDS011;22140;48.988;8.544;2022-08-11T05:21:26;8.93;;;3.45;;
23565;SDS011;22140;48.988;8.544;2022-08-11T05:26:47;9.30;;;3.33;;
23565;SDS011;22140;48.988;8.544;2022-08-11T05:32:14;8.88;;;3.53;;
23565;SDS011;22140;48.988;8.544;2022-08-11T05:37:42;8.10;;;3.17;;
23565;SDS011;22140;48.988;8.544;2022-08-11T05:43:05;9.50;;;3.70;;
23565;SDS011;22140;48.988;8.544;2022-08-11T05:48:34;10.38;;;3.75;;
23565;SDS011;22140;48.988;8.544;2022-08-11T05:53:55;7.93;;;3.10;;
23565;SDS011;22140;48.988;8.544;2022-08-11T05:59:29;8.47;;;3.53;;
23565;SDS011;22140;48.988;8.544;2022-08-11T06:04:31;7.00;;;3.22;;
23565;SDS011;22140;48.988;8.544;2022-08-11T06:09:34;7.65;;;3.38;;
23565;SDS011;22140;48.988;8.544;2022-08-11T06:14:42;6.57;;;3.20;;
23565;SDS011;22140;48.988;8.544;2022-08-11T06:19:45;7.27;;;3.37;;
23565;SDS011;22140;48.988;8.544;2022-08-11T06:24:51;11.07;;;3.50;;
23565;SDS011;22140;48.988;8.544;2022-08-11T06:29:53;8.57;;;3.13;;
23565;SDS011;22140;48.988;8.544;2022-08-11T06:40:09;8.02;;;3.05;;
23565;SDS011;22140;48.988;8.544;2022-08-11T06:46:14;8.57;;;2.97;;
23565;SDS011;22140;48.988;8.544;2022-08-11T06:50:56;6.70;;;2.90;;
23565;SDS011;22140;48.988;8.544;2022-08-11T06:56:14;9.20;;;3.20;;
23565;SDS011;22140;48.988;8.544;2022-08-11T07:01:52;9.82;;;3.22;;
23565;SDS011;22140;48.988;8.544;2022-08-11T07:12:29;9.00;;;3.00;;
23565;SDS011;22140;48.988;8.544;2022-08-11T07:17:56;5.93;;;3.00;;
23565;SDS011;22140;48.988;8.544;2022-08-11T07:23:17;6.25;;;3.20;;
23565;SDS011;22140;48.988;8.544;2022-08-11T07:28:38;7.30;;;3.03;;
23565;SDS011;22140;48.988;8.544;2022-08-11T07:34:12;8.10;;;3.20;;
23565;SDS011;22140;48.988;8.544;2022-08-11T07:39:19;9.25;;;3.42;;
23565;SDS011;22140;48.988;8.544;2022-08-11T07:44:21;7.53;;;3.30;;
23565;SDS011;22140;48.988;8.544;2022-08-11T07:49:35;6.35;;;3.10;;
23565;SDS011;22140;48.988;8.544;2022-08-11T07:54:57;8.50;;;3.38;;
23565;SDS011;22140;48.988;8.544;2022-08-11T08:00:00;6.87;;;3.27;;
23565;SDS011;22140;48.988;8.544;2022-08-11T08:05:20;5.90;;;3.27;;
23565;SDS011;22140;48.988;8.544;2022-08-11T08:10:40;6.57;;;3.45;;
23565;SDS011;22140;48.988;8.544;2022-08-11T08:16:01;7.35;;;3.60;;
23565;SDS011;22140;48.988;8.544;2022-08-11T08:21:21;7.80;;;3.07;;
23565;SDS011;22140;48.988;8.544;2022-08-11T08:26:23;8.38;;;3.53;;
23565;SDS011;22140;48.988;8.544;2022-08-11T08:31:51;7.80;;;3.25;;
23565;SDS011;22140;48.988;8.544;2022-08-11T08:36:54;6.67;;;3.20;;
23565;SDS011;22140;48.988;8.544;2022-08-11T08:41:56;11.60;;;3.40;;
23565;SDS011;22140;48.988;8.544;2022-08-11T08:46:58;6.68;;;3.22;;
23565;SDS011;22140;48.988;8.544;2022-08-11T08:52:01;6.87;;;3.53;;
23565;SDS011;22140;48.988;8.544;2022-08-11T08:57:25;10.13;;;3.50;;
23565;SDS011;22140;48.988;8.544;2022-08-11T09:02:28;6.43;;;3.17;;
23565;SDS011;22140;48.988;8.544;2022-08-11T09:07:35;8.57;;;3.63;;
23565;SDS011;22140;48.988;8.544;2022-08-11T09:12:40;7.33;;;3.40;;
23565;SDS011;22140;48.988;8.544;2022-08-11T09:17:45;6.75;;;3.83;;
23565;SDS011;22140;48.988;8.544;2022-08-11T09:22:47;5.72;;;3.30;;
23565;SDS011;22140;48.988;8.544;2022-08-11T09:28:27;7.40;;;3.50;;
23565;SDS011;22140;48.988;8.544;2022-08-11T09:33:30;10.32;;;3.28;;
23565;SDS011;22140;48.988;8.544;2022-08-11T09:38:33;7.80;;;3.05;;
23565;SDS011;22140;48.988;8.544;2022-08-11T09:43:53;9.00;;;3.50;;
23565;SDS011;22140;48.988;8.544;2022-08-11T09:49:13;9.40;;;3.53;;
23565;SDS011;22140;48.988;8.544;2022-08-11T09:54:17;10.40;;;3.25;;
23565;SDS011;22140;48.988;8.544;2022-08-11T09:59:19;7.63;;;3.38;;
23565;SDS011;22140;48.988;8.544;2022-08-11T10:04:32;7.70;;;2.97;;
23565;SDS011;22140;48.988;8.544;2022-08-11T10:09:46;7.70;;;3.20;;
23565;SDS011;22140;48.988;8.544;2022-08-11T10:14:51;6.88;;;2.95;;
23565;SDS011;22140;48.988;8.544;2022-08-11T10:20:12;7.00;;;3.13;;
23565;SDS011;22140;48.988;8.544;2022-08-11T10:25:14;10.15;;;3.00;;
23565;SDS011;22140;48.988;8.544;2022-08-11T10:30:34;6.57;;;2.90;;
23565;SDS011;22140;48.988;8.544;2022-08-11T10:35:54;8.20;;;3.00;;
23565;SDS011;22140;48.988;8.544;2022-08-11T10:40:56;7.13;;;2.50;;
23565;SDS011;22140;48.988;8.544;2022-08-11T10:46:16;6.93;;;2.65;;
23565;SDS011;22140;48.988;8.544;2022-08-11T10:51:35;9.02;;;2.60;;
23565;SDS011;22140;48.988;8.544;2022-08-11T10:56:59;6.50;;;2.30;;
23565;SDS011;22140;48.988;8.544;2022-08-11T11:02:19;5.50;;;2.30;;
23565;SDS011;22140;48.988;8.544;2022-08-11T11:07:22;8.45;;;2.60;;
23565;SDS011;22140;48.988;8.544;2022-08-11T11:17:51;7.65;;;2.60;;
23565;SDS011;22140;48.988;8.544;2022-08-11T11:22:56;10.48;;;2.78;;
23565;SDS011;22140;48.988;8.544;2022-08-11T11:28:09;6.30;;;2.50;;
23565;SDS011;22140;48.988;8.544;2022-08-11T11:33:26;7.73;;;2.53;;
23565;SDS011;22140;48.988;8.544;2022-08-11T11:38:52;9.15;;;2.90;;
23565;SDS011;22140;48.988;8.544;2022-08-11T11:43:56;5.63;;;2.50;;
23565;SDS011;22140;48.988;8.544;2022-08-11T11:49:01;5.10;;;2.40;;
23565;SDS011;22140;48.988;8.544;2022-08-11T11:54:19;5.93;;;2.60;;
23565;SDS011;22140;48.988;8.544;2022-08-11T11:59:23;5.53;;;2.30;;
23565;SDS011;22140;48.988;8.544;2022-08-11T12:04:44;5.83;;;2.27;;
23565;SDS011;22140;48.988;8.544;2022-08-11T12:09:47;5.10;;;2.25;;
23565;SDS011;22140;48.988;8.544;2022-08-11T12:14:49;7.38;;;2.50;;
23565;SDS011;22140;48.988;8.544;2022-08-11T12:19:50;8.50;;;2.63;;
23565;SDS011;22140;48.988;8.544;2022-08-11T12:24:52;6.20;;;2.37;;
23565;SDS011;22140;48.988;8.544;2022-08-11T12:30:32;6.00;;;2.70;;
23565;SDS011;22140;48.988;8.544;2022-08-11T12:35:34;6.47;;;2.40;;
23565;SDS011;22140;48.988;8.544;2022-08-11T12:40:35;6.37;;;2.50;;
23565;SDS011;22140;48.988;8.544;2022-08-11T12:46:19;7.18;;;2.60;;
23565;SDS011;22140;48.988;8.544;2022-08-11T12:51:22;8.05;;;2.47;;
23565;SDS011;22140;48.988;8.544;2022-08-11T12:57:13;6.97;;;2.40;;
23565;SDS011;22140;48.988;8.544;2022-08-11T13:02:37;5.65;;;2.78;;
23565;SDS011;22140;48.988;8.544;2022-08-11T13:08:02;6.15;;;2.42;;
23565;SDS011;22140;48.988;8.544;2022-08-11T13:13:04;9.27;;;2.70;;
23565;SDS011;22140;48.988;8.544;2022-08-11T13:18:26;6.70;;;2.80;;
23565;SDS011;22140;48.988;8.544;2022-08-11T13:23:28;6.30;;;2.65;;
23565;SDS011;22140;48.988;8.544;2022-08-11T13:28:29;6.40;;;2.80;;
23565;SDS011;22140;48.988;8.544;2022-08-11T13:33:31;7.40;;;2.60;;
23565;SDS011;22140;48.988;8.544;2022-08-11T13:38:33;6.15;;;2.40;;
23565;SDS011;22140;48.988;8.544;2022-08-11T13:43:35;12.80;;;2.50;;
23565;SDS011;22140;48.988;8.544;2022-08-11T13:48:38;6.93;;;2.40;;
23565;SDS011;22140;48.988;8.544;2022-08-11T13:53:45;6.88;;;2.30;;
23565;SDS011;22140;48.988;8.544;2022-08-11T13:58:46;5.63;;;2.35;;
23565;SDS011;22140;48.988;8.544;2022-08-11T14:03:54;10.20;;;2.60;;
23565;SDS011;22140;48.988;8.544;2022-08-11T14:09:19;6.83;;;2.50;;
23565;SDS011;22140;48.988;8.544;2022-08-11T14:14:22;5.22;;;2.30;;
23565;SDS011;22140;48.988;8.544;2022-08-11T14:19:25;5.07;;;2.10;;
23565;SDS011;22140;48.988;8.544;2022-08-11T14:24:26;7.17;;;2.50;;
23565;SDS011;22140;48.988;8.544;2022-08-11T14:29:28;9.55;;;2.30;;
23565;SDS011;22140;48.988;8.544;2022-08-11T14:34:30;7.88;;;2.38;;
23565;SDS011;22140;48.988;8.544;2022-08-11T14:39:33;5.47;;;2.20;;
23565;SDS011;22140;48.988;8.544;2022-08-11T14:44:38;6.90;;;2.30;;
23565;SDS011;22140;48.988;8.544;2022-08-11T14:49:59;6.20;;;2.40;;
23565;SDS011;22140;48.988;8.544;2022-08-11T14:55:11;5.77;;;2.30;;
23565;SDS011;22140;48.988;8.544;2022-08-11T15:00:31;5.67;;;2.17;;
23565;SDS011;22140;48.988;8.544;2022-08-11T15:05:35;6.18;;;2.20;;
23565;SDS011;22140;48.988;8.544;2022-08-11T15:10:36;5.50;;;2.30;;
23565;SDS011;22140;48.988;8.544;2022-08-11T15:15:38;6.53;;;2.40;;
23565;SDS011;22140;48.988;8.544;2022-08-11T15:21:05;5.95;;;2.30;;
23565;SDS011;22140;48.988;8.544;2022-08-11T15:26:38;6.10;;;2.50;;
23565;SDS011;22140;48.988;8.544;2022-08-11T15:31:58;6.57;;;2.50;;
23565;SDS011;22140;48.988;8.544;2022-08-11T15:37:23;6.47;;;2.28;;
23565;SDS011;22140;48.988;8.544;2022-08-11T15:42:31;7.78;;;2.35;;
23565;SDS011;22140;48.988;8.544;2022-08-11T15:47:55;5.53;;;2.30;;
23565;SDS011;22140;48.988;8.544;2022-08-11T15:58:28;5.32;;;2.40;;
23565;SDS011;22140;48.988;8.544;2022-08-11T16:04:10;6.43;;;3.05;;
23565;SDS011;22140;48.988;8.544;2022-08-11T16:09:14;7.13;;;2.43;;
23565;SDS011;22140;48.988;8.544;2022-08-11T16:14:19;5.47;;;2.30;;
23565;SDS011;22140;48.988;8.544;2022-08-11T16:19:40;6.18;;;2.33;;
23565;SDS011;22140;48.988;8.544;2022-08-11T16:24:43;6.60;;;2.00;;
23565;SDS011;22140;48.988;8.544;2022-08-11T16:30:05;6.20;;;2.17;;
23565;SDS011;22140;48.988;8.544;2022-08-11T16:35:11;6.10;;;2.45;;
23565;SDS011;22140;48.988;8.544;2022-08-11T16:40:32;5.70;;;2.50;;
23565;SDS011;22140;48.988;8.544;2022-08-11T16:45:35;6.10;;;2.33;;
23565;SDS011;22140;48.988;8.544;2022-08-11T16:50:55;6.05;;;2.45;;
23565;SDS011;22140;48.988;8.544;2022-08-11T16:55:57;6.32;;;2.15;;
23565;SDS011;22140;48.988;8.544;2022-08-11T17:01:05;6.23;;;2.10;;
23565;SDS011;22140;48.988;8.544;2022-08-11T17:06:07;5.28;;;2.40;;
23565;SDS011;22140;48.988;8.544;2022-08-11T17:11:30;6.40;;;2.30;;
23565;SDS011;22140;48.988;8.544;2022-08-11T17:16:51;7.57;;;2.40;;
23565;SDS011;22140;48.988;8.544;2022-08-11T17:21:53;7.28;;;2.45;;
23565;SDS011;22140;48.988;8.544;2022-08-11T17:27:14;7.90;;;2.30;;
23565;SDS011;22140;48.988;8.544;2022-08-11T17:32:20;5.70;;;2.40;;
23565;SDS011;22140;48.988;8.544;2022-08-11T17:38:02;6.53;;;2.23;;
23565;SDS011;22140;48.988;8.544;2022-08-11T17:43:07;7.82;;;2.50;;
23565;SDS011;22140;48.988;8.544;2022-08-11T17:48:28;7.50;;;2.28;;
23565;SDS011;22140;48.988;8.544;2022-08-11T17:53:31;5.37;;;2.27;;
23565;SDS011;22140;48.988;8.544;2022-08-11T17:59:13;6.90;;;2.20;;
23565;SDS011;22140;48.988;8.544;2022-08-11T18:04:33;6.20;;;2.40;;
23565;SDS011;22140;48.988;8.544;2022-08-11T18:09:35;7.80;;;2.40;;
23565;SDS011;22140;48.988;8.544;2022-08-11T18:14:55;7.28;;;2.65;;
23565;SDS011;22140;48.988;8.544;2022-08-11T18:20:17;7.35;;;2.60;;
23565;SDS011;22140;48.988;8.544;2022-08-11T18:25:38;8.40;;;3.50;;
23565;SDS011;22140;48.988;8.544;2022-08-11T18:30:59;7.10;;;2.53;;
23565;SDS011;22140;48.988;8.544;2022-08-11T18:36:20;9.65;;;3.13;;
23565;SDS011;22140;48.988;8.544;2022-08-11T18:41:41;7.43;;;2.92;;
23565;SDS011;22140;48.988;8.544;2022-08-11T18:47:04;8.33;;;2.73;;
23565;SDS011;22140;48.988;8.544;2022-08-11T18:52:29;7.55;;;3.00;;
23565;SDS011;22140;48.988;8.544;2022-08-11T18:57:50;10.57;;;3.03;;
23565;SDS011;22140;48.988;8.544;2022-08-11T19:03:13;9.57;;;2.40;;
23565;SDS011;22140;48.988;8.544;2022-08-11T19:08:53;8.40;;;2.55;;
23565;SDS011;22140;48.988;8.544;2022-08-11T19:14:15;8.02;;;2.90;;
23565;SDS011;22140;48.988;8.544;2022-08-11T19:19:35;14.83;;;3.07;;
23565;SDS011;22140;48.988;8.544;2022-08-11T19:24:56;10.47;;;3.03;;
23565;SDS011;22140;48.988;8.544;2022-08-11T19:30:20;10.75;;;3.22;;
23565;SDS011;22140;48.988;8.544;2022-08-11T19:35:40;9.20;;;2.90;;
23565;SDS011;22140;48.988;8.544;2022-08-11T19:41:00;18.93;;;3.53;;
23565;SDS011;22140;48.988;8.544;2022-08-11T19:46:42;8.60;;;3.00;;
23565;SDS011;22140;48.988;8.544;2022-08-11T19:52:07;8.77;;;2.80;;
23565;SDS011;22140;48.988;8.544;2022-08-11T19:57:27;9.07;;;2.90;;
23565;SDS011;22140;48.988;8.544;2022-08-11T20:02:48;8.73;;;2.78;;
23565;SDS011;22140;48.988;8.544;2022-08-11T20:08:09;8.20;;;2.58;;
23565;SDS011;22140;48.988;8.544;2022-08-11T20:13:29;7.17;;;2.70;;
23565;SDS011;22140;48.988;8.544;2022-08-11T20:18:50;7.50;;;2.60;;
23565;SDS011;22140;48.988;8.544;2022-08-11T20:24:11;9.18;;;2.63;;
23565;SDS011;22140;48.988;8.544;2022-08-11T20:29:32;7.43;;;2.78;;
23565;SDS011;22140;48.988;8.544;2022-08-11T20:34:54;9.27;;;2.50;;
23565;SDS011;22140;48.988;8.544;2022-08-11T20:40:14;6.85;;;2.30;;
23565;SDS011;22140;48.988;8.544;2022-08-11T20:45:35;8.93;;;2.60;;
23565;SDS011;22140;48.988;8.544;2022-08-11T20:50:57;8.13;;;2.70;;
23565;SDS011;22140;48.988;8.544;2022-08-11T20:56:18;6.53;;;2.75;;
23565;SDS011;22140;48.988;8.544;2022-08-11T21:01:40;7.00;;;2.47;;
23565;SDS011;22140;48.988;8.544;2022-08-11T21:07:03;7.60;;;2.60;;
23565;SDS011;22140;48.988;8.544;2022-08-11T21:12:29;6.33;;;2.70;;
23565;SDS011;22140;48.988;8.544;2022-08-11T21:17:55;6.07;;;2.45;;
23565;SDS011;22140;48.988;8.544;2022-08-11T21:23:30;5.47;;;2.40;;
23565;SDS011;22140;48.988;8.544;2022-08-11T21:28:51;6.70;;;2.50;;
23565;SDS011;22140;48.988;8.544;2022-08-11T21:34:12;5.80;;;2.58;;
23565;SDS011;22140;48.988;8.544;2022-08-11T21:39:34;8.60;;;2.70;;
23565;SDS011;22140;48.988;8.544;2022-08-11T21:44:55;5.87;;;2.63;;
23565;SDS011;22140;48.988;8.544;2022-08-11T21:50:15;6.55;;;2.97;;
23565;SDS011;22140;48.988;8.544;2022-08-11T21:55:35;5.88;;;2.80;;
23565;SDS011;22140;48.988;8.544;2022-08-11T22:00:55;7.10;;;2.50;;
23565;SDS011;22140;48.988;8.544;2022-08-11T22:06:16;9.27;;;2.90;;
23565;SDS011;22140;48.988;8.544;2022-08-11T22:11:36;6.95;;;2.60;;
23565;SDS011;22140;48.988;8.544;2022-08-11T22:17:17;6.70;;;2.67;;
23565;SDS011;22140;48.988;8.544;2022-08-11T22:22:37;7.80;;;2.80;;
23565;SDS011;22140;48.988;8.544;2022-08-11T22:27:58;8.50;;;2.58;;
23565;SDS011;22140;48.988;8.544;2022-08-11T22:33:18;7.32;;;2.72;;
23565;SDS011;22140;48.988;8.544;2022-08-11T22:38:59;6.93;;;2.70;;
23565;SDS011;22140;48.988;8.544;2022-08-11T22:44:20;6.80;;;2.75;;
23565;SDS011;22140;48.988;8.544;2022-08-11T22:49:40;7.93;;;2.67;;
23565;SDS011;22140;48.988;8.544;2022-08-11T22:55:01;6.33;;;2.53;;
23565;SDS011;22140;48.988;8.544;2022-08-11T23:00:21;6.47;;;2.40;;
23565;SDS011;22140;48.988;8.544;2022-08-11T23:05:41;6.55;;;2.97;;
23565;SDS011;22140;48.988;8.544;2022-08-11T23:11:04;6.30;;;2.70;;
23565;SDS011;22140;48.988;8.544;2022-08-11T23:16:25;7.20;;;2.80;;
23565;SDS011;22140;48.988;8.544;2022-08-11T23:21:45;7.95;;;2.80;;
23565;SDS011;22140;48.988;8.544;2022-08-11T23:27:06;6.90;;;2.90;;
23565;SDS011;22140;48.988;8.544;2022-08-11T23:32:27;7.10;;;2.47;;
23565;SDS011;22140;48.988;8.544;2022-08-11T23:37:47;6.00;;;2.75;;
23565;SDS011;22140;48.988;8.544;2022-08-11T23:43:07;8.90;;;2.90;;
23565;SDS011;22140;48.988;8.544;2022-08-11T23:48:28;8.80;;;3.00;;
23565;SDS011;22140;48.988;8.544;2022-08-11T23:53:49;8.00;;;2.90;;
23565;SDS011;22140;48.988;8.544;2022-08-11T23:59:09;7.28;;;2.90;;
